createdAt,value
2022-08-14T00:01:11.537Z,6.57
2022-08-14T00:03:40.628Z,6.35
2022-08-14T00:06:25.302Z,6.40
2022-08-14T00:08:59.322Z,6.60
2022-08-14T00:11:31.292Z,6.75
2022-08-14T00:13:59.878Z,6.75
2022-08-14T00:16:41.711Z,6.57
2022-08-14T00:19:19.565Z,6.75
2022-08-14T00:21:50.235Z,6.68
2022-08-14T00:24:28.293Z,7.95
2022-08-14T00:26:56.677Z,6.30
2022-08-14T00:29:25.681Z,6.03
2022-08-14T00:31:56.270Z,6.60
2022-08-14T00:34:37.089Z,7.30
2022-08-14T00:37:13.733Z,7.22
2022-08-14T00:39:40.744Z,7.20
2022-08-14T00:42:21.310Z,7.50
2022-08-14T00:44:56.780Z,6.93
2022-08-14T00:47:26.912Z,6.75
2022-08-14T00:49:56.353Z,6.75
2022-08-14T00:52:25.336Z,7.00
2022-08-14T00:54:57.700Z,6.45
2022-08-14T00:57:27.534Z,6.57
2022-08-14T00:59:56.371Z,6.68
2022-08-14T01:02:24.748Z,7.15
2022-08-14T01:05:07.560Z,6.40
2022-08-14T01:07:38.583Z,6.40
2022-08-14T01:10:14.113Z,6.65
2022-08-14T01:12:43.047Z,5.13
2022-08-14T01:15:09.995Z,5.25
2022-08-14T01:18:00.331Z,5.30
2022-08-14T01:20:46.295Z,5.20
2022-08-14T01:23:16.179Z,5.25
2022-08-14T01:25:47.158Z,4.75
2022-08-14T01:28:34.340Z,4.55
2022-08-14T01:31:01.803Z,5.65
2022-08-14T01:33:29.967Z,5.07
2022-08-14T01:36:04.640Z,4.68
2022-08-14T01:38:37.070Z,4.20
2022-08-14T01:41:11.819Z,4.88
2022-08-14T01:43:56.632Z,4.60
2022-08-14T01:46:25.158Z,4.35
2022-08-14T01:49:01.571Z,4.43
2022-08-14T01:51:30.742Z,3.90
2022-08-14T01:54:00.880Z,4.22
2022-08-14T01:56:39.710Z,4.40
2022-08-14T01:59:21.518Z,4.43
2022-08-14T02:01:58.187Z,4.13
2022-08-14T02:04:56.184Z,4.05
2022-08-14T02:07:17.488Z,4.03
2022-08-14T02:10:00.656Z,4.13
2022-08-14T02:12:29.378Z,4.25
2022-08-14T02:17:30.661Z,4.32
2022-08-14T02:22:32.541Z,4.60
2022-08-14T02:25:00.131Z,3.97
2022-08-14T02:28:23.734Z,4.25
2022-08-14T02:30:15.859Z,4.03
2022-08-14T02:32:43.096Z,3.92
2022-08-14T02:35:18.954Z,3.83
2022-08-14T02:37:49.160Z,4.00
2022-08-14T02:40:20.969Z,4.35
2022-08-14T02:42:59.935Z,4.32
2022-08-14T02:45:38.521Z,4.45
2022-08-14T02:49:05.432Z,4.60
2022-08-14T02:51:00.552Z,4.50
2022-08-14T02:53:27.500Z,4.50
2022-08-14T02:55:56.688Z,3.72
2022-08-14T02:58:31.093Z,4.38
2022-08-14T03:00:58.994Z,4.35
2022-08-14T03:03:25.985Z,3.97
2022-08-14T03:05:54.158Z,5.05
2022-08-14T03:08:21.854Z,4.13
2022-08-14T03:10:50.123Z,3.90
2022-08-14T03:13:21.086Z,5.55
2022-08-14T03:15:55.731Z,5.70
2022-08-14T03:18:31.530Z,4.68
2022-08-14T03:21:01.622Z,6.75
2022-08-14T03:23:28.358Z,5.15
2022-08-14T03:25:55.179Z,5.55
2022-08-14T03:28:33.125Z,5.03
2022-08-14T03:31:00.681Z,7.53
2022-08-14T03:33:28.126Z,6.05
2022-08-14T03:37:28.871Z,6.43
2022-08-14T03:39:15.409Z,5.72
2022-08-14T03:41:45.108Z,6.20
2022-08-14T03:45:27.138Z,5.68
2022-08-14T03:46:58.062Z,6.57
2022-08-14T03:49:28.342Z,5.53
2022-08-14T03:51:55.854Z,5.75
2022-08-14T03:54:24.546Z,5.63
2022-08-14T03:56:51.089Z,6.30
2022-08-14T03:59:19.442Z,5.18
2022-08-14T04:01:57.893Z,6.25
2022-08-14T04:04:29.491Z,5.00
2022-08-14T04:06:58.998Z,5.10
2022-08-14T04:09:26.650Z,4.93
2022-08-14T04:11:53.857Z,4.93
2022-08-14T04:14:20.408Z,4.68
2022-08-14T04:16:48.076Z,4.63
2022-08-14T04:19:19.944Z,5.38
2022-08-14T04:22:01.743Z,4.80
2022-08-14T04:24:30.824Z,4.10
2022-08-14T04:27:04.467Z,4.40
2022-08-14T04:29:32.780Z,4.00
2022-08-14T04:33:00.116Z,4.47
2022-08-14T04:34:52.005Z,3.85
2022-08-14T04:37:43.565Z,4.18
2022-08-14T04:40:40.615Z,4.10
2022-08-14T04:43:26.237Z,4.10
2022-08-14T04:46:57.412Z,4.70
2022-08-14T04:49:07.861Z,4.05
2022-08-14T04:51:37.515Z,4.40
2022-08-14T04:54:13.043Z,4.55
2022-08-14T04:56:39.751Z,4.18
2022-08-14T04:59:09.685Z,4.60
2022-08-14T05:01:40.429Z,4.15
2022-08-14T05:04:08.645Z,4.70
2022-08-14T05:06:40.948Z,4.93
2022-08-14T05:09:14.183Z,4.65
2022-08-14T05:11:41.434Z,5.03
2022-08-14T05:14:33.699Z,4.32
2022-08-14T05:16:56.166Z,4.13
2022-08-14T05:19:29.571Z,4.18
2022-08-14T05:22:16.515Z,4.22
2022-08-14T05:24:50.410Z,4.38
2022-08-14T05:27:22.648Z,4.20
2022-08-14T05:29:50.635Z,4.10
2022-08-14T05:32:17.312Z,4.05
2022-08-14T05:34:45.821Z,4.50
2022-08-14T05:37:15.393Z,3.97
2022-08-14T05:39:43.089Z,3.97
2022-08-14T05:42:21.399Z,4.07
2022-08-14T05:44:48.897Z,4.07
2022-08-14T05:47:16.054Z,4.30
2022-08-14T05:49:43.718Z,3.92
2022-08-14T05:52:10.844Z,4.00
2022-08-14T05:54:44.583Z,4.00
2022-08-14T05:57:11.131Z,3.90
2022-08-14T05:59:39.908Z,3.72
2022-08-14T06:02:11.251Z,4.43
2022-08-14T06:04:39.449Z,4.30
2022-08-14T06:07:06.811Z,4.20
2022-08-14T06:09:36.042Z,3.70
2022-08-14T06:12:12.047Z,3.92
2022-08-14T06:14:38.878Z,4.30
2022-08-14T06:17:05.789Z,4.03
2022-08-14T06:19:32.335Z,4.10
2022-08-14T06:21:59.402Z,3.80
2022-08-14T06:24:27.040Z,3.88
2022-08-14T06:26:54.350Z,3.63
2022-08-14T06:29:26.679Z,4.03
2022-08-14T06:32:37.670Z,3.70
2022-08-14T06:35:02.380Z,4.20
2022-08-14T06:37:45.110Z,4.00
2022-08-14T06:40:26.831Z,3.90
2022-08-14T06:43:03.396Z,3.80
2022-08-14T06:45:34.873Z,3.85
2022-08-14T06:48:05.971Z,3.90
2022-08-14T06:50:33.708Z,4.20
2022-08-14T06:53:01.099Z,4.45
2022-08-14T06:55:29.391Z,4.13
2022-08-14T06:57:57.610Z,3.83
2022-08-14T07:00:31.157Z,4.05
2022-08-14T07:03:31.837Z,4.03
2022-08-14T07:06:03.800Z,3.88
2022-08-14T07:08:38.125Z,3.72
2022-08-14T07:11:04.672Z,3.75
2022-08-14T07:13:32.007Z,3.92
2022-08-14T07:16:00.530Z,3.78
2022-08-14T07:18:33.563Z,4.00
2022-08-14T07:21:02.152Z,3.90
2022-08-14T07:23:31.308Z,3.88
2022-08-14T07:25:59.657Z,3.72
2022-08-14T07:28:34.714Z,3.70
2022-08-14T07:31:05.824Z,4.10
2022-08-14T07:33:35.111Z,3.80
2022-08-14T07:36:26.446Z,4.10
2022-08-14T07:38:52.616Z,4.47
2022-08-14T07:41:19.450Z,3.60
2022-08-14T07:43:55.169Z,3.85
2022-08-14T07:46:29.608Z,4.18
2022-08-14T07:48:57.898Z,3.70
2022-08-14T07:51:24.463Z,4.20
2022-08-14T07:53:57.203Z,3.92
2022-08-14T07:56:47.993Z,3.58
2022-08-14T07:59:10.804Z,4.10
2022-08-14T08:01:39.437Z,3.90
2022-08-14T08:04:16.718Z,4.15
2022-08-14T08:06:51.100Z,4.18
2022-08-14T08:09:19.630Z,3.83
2022-08-14T08:11:54.473Z,4.20
2022-08-14T08:14:24.721Z,4.40
2022-08-14T08:16:53.986Z,4.20
2022-08-14T08:19:20.513Z,4.30
2022-08-14T08:21:47.959Z,4.25
2022-08-14T08:24:19.760Z,4.70
2022-08-14T08:26:46.940Z,4.47
2022-08-14T08:29:20.192Z,3.85
2022-08-14T08:31:52.618Z,4.20
2022-08-14T08:34:20.460Z,3.95
2022-08-14T08:36:51.025Z,4.05
2022-08-14T08:39:22.539Z,3.60
2022-08-14T08:41:53.184Z,4.45
2022-08-14T08:44:31.949Z,3.95
2022-08-14T08:47:08.061Z,4.20
2022-08-14T08:49:59.417Z,4.13
2022-08-14T08:52:31.250Z,4.55
2022-08-14T08:54:59.631Z,4.38
2022-08-14T08:57:37.989Z,4.80
2022-08-14T09:00:24.318Z,4.93
2022-08-14T09:02:59.295Z,4.50
2022-08-14T09:05:29.704Z,4.45
2022-08-14T09:08:26.414Z,4.80
2022-08-14T09:11:19.910Z,4.40
2022-08-14T09:13:53.121Z,4.57
2022-08-14T09:16:24.829Z,4.95
2022-08-14T09:18:53.281Z,4.65
2022-08-14T09:21:24.870Z,4.47
2022-08-14T09:24:28.680Z,4.50
2022-08-14T09:26:53.054Z,4.88
2022-08-14T09:29:23.646Z,4.55
2022-08-14T09:31:57.008Z,4.70
2022-08-14T09:34:39.824Z,5.28
2022-08-14T09:37:40.678Z,5.65
2022-08-14T09:40:22.918Z,5.15
2022-08-14T09:42:55.558Z,4.82
2022-08-14T09:49:06.121Z,4.90
2022-08-14T09:51:51.607Z,4.78
2022-08-14T09:54:23.903Z,4.38
2022-08-14T09:56:59.572Z,4.53
2022-08-14T09:59:42.436Z,5.10
2022-08-14T10:02:34.337Z,4.78
2022-08-14T10:05:13.255Z,4.90
2022-08-14T10:07:57.461Z,4.60
2022-08-14T10:10:37.488Z,4.80
2022-08-14T10:13:23.660Z,4.50
2022-08-14T10:16:01.365Z,4.38
2022-08-14T10:18:30.906Z,4.70
2022-08-14T10:21:04.572Z,4.32
2022-08-14T10:24:02.963Z,4.97
2022-08-14T10:26:31.363Z,4.60
2022-08-14T10:29:19.281Z,4.47
2022-08-14T10:34:29.223Z,4.97
2022-08-14T10:37:14.489Z,4.80
2022-08-14T10:39:51.477Z,4.50
2022-08-14T10:42:41.022Z,4.68
2022-08-14T10:45:24.404Z,4.72
2022-08-14T10:48:24.308Z,4.80
2022-08-14T10:51:00.108Z,4.90
2022-08-14T10:53:33.088Z,4.93
2022-08-14T10:56:03.703Z,4.50
2022-08-14T10:58:34.363Z,4.40
2022-08-14T11:01:05.492Z,4.80
2022-08-14T11:03:56.321Z,4.70
2022-08-14T11:06:24.747Z,4.57
2022-08-14T11:08:52.906Z,4.60
2022-08-14T11:11:22.922Z,4.90
2022-08-14T11:13:51.082Z,4.43
2022-08-14T11:16:18.352Z,5.07
2022-08-14T11:18:50.811Z,4.53
2022-08-14T11:21:22.979Z,4.45
2022-08-14T11:23:53.388Z,4.40
2022-08-14T11:26:22.733Z,4.60
2022-08-14T11:28:50.993Z,4.40
2022-08-14T11:31:20.565Z,4.30
2022-08-14T11:33:58.436Z,4.72
2022-08-14T11:36:35.200Z,4.10
2022-08-14T11:39:34.016Z,4.40
2022-08-14T11:42:57.806Z,3.90
2022-08-14T11:45:04.283Z,4.78
2022-08-14T11:47:35.324Z,4.40
2022-08-14T11:53:04.255Z,4.43
2022-08-14T11:55:36.095Z,4.45
2022-08-14T11:58:10.592Z,4.50
2022-08-14T12:00:48.483Z,4.78
2022-08-14T12:03:19.914Z,4.38
2022-08-14T12:05:50.713Z,4.55
2022-08-14T12:08:24.276Z,4.82
2022-08-14T12:10:57.200Z,4.80
2022-08-14T12:13:27.234Z,4.65
2022-08-14T12:16:06.625Z,5.20
2022-08-14T12:18:42.435Z,4.50
2022-08-14T12:21:19.339Z,4.18
2022-08-14T12:23:50.630Z,4.45
2022-08-14T12:26:39.524Z,4.55
2022-08-14T12:29:13.158Z,4.85
2022-08-14T12:31:46.720Z,4.90
2022-08-14T12:34:22.913Z,4.50
2022-08-14T12:37:04.101Z,4.72
2022-08-14T12:42:06.324Z,4.43
2022-08-14T12:44:37.383Z,4.65
2022-08-14T12:47:15.294Z,4.63
2022-08-14T12:49:52.497Z,4.85
2022-08-14T12:52:45.326Z,4.47
2022-08-14T12:55:21.622Z,4.43
2022-08-14T12:57:53.083Z,4.60
2022-08-14T13:00:24.707Z,4.75
2022-08-14T13:02:56.645Z,4.30
2022-08-14T13:05:32.436Z,4.22
2022-08-14T13:08:04.193Z,3.90
2022-08-14T13:10:47.814Z,4.28
2022-08-14T13:13:20.444Z,4.40
2022-08-14T13:15:56.004Z,4.40
2022-08-14T13:18:26.378Z,4.30
2022-08-14T13:20:57.759Z,4.68
2022-08-14T13:23:31.883Z,4.30
2022-08-14T13:25:59.221Z,4.13
2022-08-14T13:28:33.836Z,4.57
2022-08-14T13:31:08.912Z,4.28
2022-08-14T13:33:38.055Z,4.15
2022-08-14T13:36:08.332Z,4.75
2022-08-14T13:38:35.455Z,4.47
2022-08-14T13:41:02.669Z,4.80
2022-08-14T13:43:31.407Z,4.43
2022-08-14T13:46:03.900Z,4.43
2022-08-14T13:48:33.234Z,4.40
2022-08-14T13:51:08.046Z,4.57
2022-08-14T13:54:07.099Z,4.35
2022-08-14T13:56:39.962Z,4.30
2022-08-14T13:59:06.910Z,4.30
2022-08-14T14:01:43.072Z,4.20
2022-08-14T14:04:19.229Z,4.57
2022-08-14T14:06:52.524Z,4.30
2022-08-14T14:09:27.016Z,4.68
2022-08-14T14:12:00.243Z,4.35
2022-08-14T14:14:44.976Z,4.95
2022-08-14T14:17:14.334Z,4.93
2022-08-14T14:19:46.527Z,4.70
2022-08-14T14:22:36.038Z,4.40
2022-08-14T14:25:04.381Z,4.40
2022-08-14T14:27:41.725Z,4.80
2022-08-14T14:30:51.803Z,4.97
2022-08-14T14:33:14.367Z,5.10
2022-08-14T14:35:56.656Z,5.70
2022-08-14T14:38:30.883Z,4.75
2022-08-14T14:41:01.638Z,5.13
2022-08-14T14:43:28.807Z,5.13
2022-08-14T14:45:56.323Z,4.93
2022-08-14T14:48:28.180Z,4.47
2022-08-14T14:50:57.449Z,4.78
2022-08-14T14:53:25.375Z,5.15
2022-08-14T14:56:46.701Z,5.07
2022-08-14T14:58:43.296Z,5.03
2022-08-14T15:01:17.479Z,4.75
2022-08-14T15:03:46.100Z,4.93
2022-08-14T15:06:12.878Z,4.78
2022-08-14T15:08:56.671Z,4.85
2022-08-14T15:11:30.084Z,4.65
2022-08-14T15:13:57.943Z,4.53
2022-08-14T15:16:24.875Z,5.05
2022-08-14T15:18:51.411Z,4.82
2022-08-14T15:21:19.727Z,4.75
2022-08-14T15:23:48.061Z,5.10
2022-08-14T15:26:24.560Z,4.80
2022-08-14T15:29:07.501Z,4.80
2022-08-14T15:31:36.315Z,4.68
2022-08-14T15:34:44.759Z,4.65
2022-08-14T15:37:03.129Z,5.10
2022-08-14T15:39:35.539Z,4.40
2022-08-14T15:42:37.315Z,3.85
2022-08-14T15:45:10.233Z,4.60
2022-08-14T15:47:41.547Z,4.47
2022-08-14T15:50:09.599Z,4.60
2022-08-14T15:52:37.534Z,4.65
2022-08-14T15:55:15.338Z,4.65
2022-08-14T15:58:01.813Z,5.07
2022-08-14T16:00:54.752Z,4.40
2022-08-14T16:03:27.401Z,4.40
2022-08-14T16:06:17.721Z,4.60
2022-08-14T16:08:58.943Z,4.40
2022-08-14T16:11:28.760Z,4.75
2022-08-14T16:14:00.960Z,4.70
2022-08-14T16:16:46.965Z,4.82
2022-08-14T16:19:19.087Z,4.07
2022-08-14T16:22:02.232Z,4.75
2022-08-14T16:24:59.567Z,4.20
2022-08-14T16:27:39.416Z,3.90
2022-08-14T16:30:24.482Z,4.43
2022-08-14T16:33:02.092Z,4.30
2022-08-14T16:35:42.652Z,4.82
2022-08-14T16:38:45.668Z,13.85
2022-08-14T16:41:18.150Z,5.90
2022-08-14T16:43:51.448Z,5.03
2022-08-14T16:46:22.264Z,4.90
2022-08-14T16:48:54.801Z,5.00
2022-08-14T16:51:24.762Z,4.78
2022-08-14T16:53:51.644Z,4.30
2022-08-14T16:56:24.176Z,4.25
2022-08-14T16:59:05.760Z,4.68
2022-08-14T17:01:32.510Z,4.82
2022-08-14T17:04:14.972Z,4.32
2022-08-14T17:06:52.894Z,4.40
2022-08-14T17:09:27.844Z,4.65
2022-08-14T17:12:07.316Z,4.68
2022-08-14T17:14:50.629Z,4.57
2022-08-14T17:17:22.814Z,4.55
2022-08-14T17:19:55.948Z,4.97
2022-08-14T17:22:22.935Z,4.72
2022-08-14T17:25:02.955Z,4.40
2022-08-14T17:27:32.389Z,4.90
2022-08-14T17:29:59.529Z,4.60
2022-08-14T17:32:44.367Z,4.72
2022-08-14T17:35:53.097Z,5.13
2022-08-14T17:38:39.489Z,5.03
2022-08-14T17:41:33.079Z,4.80
2022-08-14T17:44:34.252Z,5.10
2022-08-14T17:47:14.472Z,4.45
2022-08-14T17:49:47.634Z,4.68
2022-08-14T17:52:34.957Z,4.13
2022-08-14T17:56:02.316Z,4.35
2022-08-14T17:58:01.549Z,4.88
2022-08-14T18:00:50.300Z,4.60
2022-08-14T18:03:18.608Z,4.60
2022-08-14T18:06:09.873Z,4.28
2022-08-14T18:08:56.615Z,4.40
2022-08-14T18:11:26.642Z,4.78
2022-08-14T18:14:31.392Z,4.80
2022-08-14T18:16:58.695Z,4.40
2022-08-14T18:19:30.636Z,5.20
2022-08-14T18:21:59.713Z,4.40
2022-08-14T18:24:29.424Z,4.63
2022-08-14T18:27:15.865Z,4.50
2022-08-14T18:29:55.987Z,5.13
2022-08-14T18:32:32.074Z,4.70
2022-08-14T18:35:45.587Z,4.30
2022-08-14T18:38:46.505Z,4.63
2022-08-14T18:41:36.628Z,4.07
2022-08-14T18:44:10.847Z,4.50
2022-08-14T18:47:10.128Z,4.50
2022-08-14T18:50:00.391Z,4.60
2022-08-14T18:52:28.665Z,4.32
2022-08-14T18:54:59.130Z,4.55
2022-08-14T18:57:25.959Z,4.53
2022-08-14T18:59:53.898Z,4.57
2022-08-14T19:02:30.524Z,4.50
2022-08-14T19:05:02.528Z,4.40
2022-08-14T19:07:33.883Z,4.10
2022-08-14T19:10:05.738Z,4.90
2022-08-14T19:12:56.573Z,4.35
2022-08-14T19:15:45.315Z,4.20
2022-08-14T19:18:28.554Z,4.85
2022-08-14T19:21:26.439Z,4.50
2022-08-14T19:24:27.932Z,4.13
2022-08-14T19:27:16.474Z,3.90
2022-08-14T19:29:47.920Z,4.55
2022-08-14T19:32:36.487Z,4.35
2022-08-14T19:35:18.181Z,4.40
2022-08-14T19:37:54.177Z,4.07
2022-08-14T19:40:42.639Z,4.40
2022-08-14T19:43:10.776Z,3.90
2022-08-14T19:45:38.686Z,4.18
2022-08-14T19:48:14.456Z,3.80
2022-08-14T19:50:46.018Z,4.00
2022-08-14T19:53:17.173Z,3.95
2022-08-14T19:55:56.541Z,4.05
2022-08-14T19:58:30.310Z,3.55
2022-08-14T20:01:01.650Z,4.00
2022-08-14T20:04:00.259Z,3.90
2022-08-14T20:06:46.412Z,4.45
2022-08-14T20:11:06.717Z,4.60
2022-08-14T20:12:04.595Z,3.80
2022-08-14T20:14:36.967Z,4.10
2022-08-14T20:17:06.942Z,4.47
2022-08-14T20:19:38.084Z,4.30
2022-08-14T20:22:35.109Z,4.30
2022-08-14T20:25:10.630Z,3.80
2022-08-14T20:32:59.260Z,4.55
2022-08-14T20:35:41.705Z,4.30
2022-08-14T20:38:30.972Z,4.18
2022-08-14T20:40:59.333Z,4.75
2022-08-14T20:43:46.502Z,4.30
2022-08-14T20:46:29.394Z,4.40
2022-08-14T20:48:56.683Z,4.00
2022-08-14T20:51:37.139Z,5.13
2022-08-14T20:54:05.457Z,4.57
2022-08-14T20:56:37.168Z,4.60
2022-08-14T20:59:19.792Z,4.32
2022-08-14T21:02:28.482Z,4.40
2022-08-14T21:05:00.518Z,4.88
2022-08-14T21:07:36.660Z,5.03
2022-08-14T21:10:36.527Z,4.07
2022-08-14T21:14:09.307Z,4.43
2022-08-14T21:15:58.759Z,4.43
2022-08-14T21:18:28.851Z,4.60
2022-08-14T21:20:57.719Z,4.20
2022-08-14T21:23:24.438Z,4.22
2022-08-14T21:25:53.974Z,4.32
2022-08-14T21:28:29.666Z,4.25
2022-08-14T21:30:58.510Z,4.70
2022-08-14T21:33:25.479Z,4.68
2022-08-14T21:35:55.499Z,3.80
2022-08-14T21:38:34.000Z,4.30
2022-08-14T21:41:43.312Z,4.60
2022-08-14T21:44:17.841Z,4.57
2022-08-14T21:46:56.023Z,4.35
2022-08-14T21:49:37.541Z,4.47
2022-08-14T21:52:51.556Z,4.13
2022-08-14T21:54:59.514Z,3.72
2022-08-14T21:57:56.631Z,4.10
2022-08-14T22:00:35.301Z,3.67
2022-08-14T22:03:10.852Z,4.00
2022-08-14T22:05:41.951Z,3.88
2022-08-14T22:08:12.061Z,4.10
2022-08-14T22:13:05.912Z,4.30
2022-08-14T22:15:32.690Z,4.40
2022-08-14T22:17:59.941Z,4.43
2022-08-14T22:20:29.491Z,4.15
2022-08-14T22:22:57.491Z,4.53
2022-08-14T22:25:33.161Z,4.13
2022-08-14T22:28:01.346Z,4.32
2022-08-14T22:30:27.925Z,4.00
2022-08-14T22:32:57.271Z,3.92
2022-08-14T22:38:36.341Z,4.10
2022-08-14T22:41:02.873Z,4.40
2022-08-14T22:43:26.599Z,4.45
2022-08-14T22:45:55.496Z,4.13
2022-08-14T22:48:23.361Z,4.35
2022-08-14T22:50:53.388Z,3.97
2022-08-14T22:53:21.150Z,4.28
2022-08-14T22:55:48.736Z,4.30
2022-08-14T22:58:31.570Z,4.00
2022-08-14T23:01:01.907Z,3.85
2022-08-14T23:03:34.110Z,3.90
2022-08-14T23:06:02.219Z,3.60
2022-08-14T23:08:59.422Z,4.25
2022-08-14T23:11:15.425Z,4.00
2022-08-14T23:13:43.554Z,3.83
2022-08-14T23:16:19.995Z,4.20
2022-08-14T23:18:53.935Z,4.32
2022-08-14T23:21:24.078Z,3.85
2022-08-14T23:23:55.214Z,3.80
2022-08-14T23:26:48.304Z,4.10
2022-08-14T23:29:11.483Z,4.13
2022-08-14T23:31:38.587Z,3.60
2022-08-14T23:34:20.348Z,3.50
2022-08-14T23:36:53.989Z,4.13
2022-08-14T23:39:30.016Z,3.90
2022-08-14T23:41:57.551Z,4.13
2022-08-14T23:44:31.975Z,4.03
2022-08-14T23:47:05.669Z,4.30
2022-08-14T23:50:00.257Z,3.60
2022-08-14T23:52:50.351Z,3.70
2022-08-14T23:55:12.708Z,3.90
2022-08-14T23:57:43.851Z,3.83
